Windsor, Connecticut
Current Conditions -  °F | °C
As of 11:51 AM on Tuesday 21 Oct 2014 (Local Time) from KBDL Reporting Station
Broken Clouds Broken Clouds  
Wind Chill: 61°   Ceiling: 8000
Heat Index: 61°   Visibility: 10mi
Dew Point: 47°   Wind: 6mph
Humidity: 60%   Direction: 30°NNE
Pressure: 29.92"   Gusts: NA
Location:  41.85°N, 72.64°W
Report Text: KBDL 211551Z 03005KT 10SM FEW030 BKN080 BKN090 16/08 A2992 RMK AO2 SLP133 T01610083
Loading
Personal Weather Stations






























Interactive Weather Map
Tropical Storm Tracking
New forecast layout! Learn more

10-Day Weather Forecast

Advertisements
Track Severe Weather on mobile